createdAt,value
2023-03-08T00:01:14.787Z,17.40
2023-03-08T00:03:42.382Z,22.55
2023-03-08T00:06:12.305Z,17.05
2023-03-08T00:08:39.535Z,17.63
2023-03-08T00:11:07.876Z,15.55
2023-03-08T00:13:35.416Z,15.13
2023-03-08T00:16:03.874Z,16.27
2023-03-08T00:18:31.150Z,17.48
2023-03-08T00:21:12.226Z,15.27
2023-03-08T00:23:39.529Z,21.27
2023-03-08T00:26:06.820Z,15.30
2023-03-08T00:28:35.080Z,18.75
2023-03-08T00:31:03.681Z,14.50
2023-03-08T00:33:32.988Z,13.73
2023-03-08T00:36:01.376Z,16.13
2023-03-08T00:38:29.316Z,16.45
2023-03-08T00:40:56.635Z,14.60
2023-03-08T00:43:23.795Z,14.10
2023-03-08T00:45:53.170Z,14.65
2023-03-08T00:48:20.622Z,14.43
2023-03-08T00:50:47.978Z,12.85
2023-03-08T00:53:15.344Z,14.55
2023-03-08T00:55:55.589Z,12.57
2023-03-08T00:58:23.266Z,19.65
2023-03-08T01:00:50.453Z,13.15
2023-03-08T01:03:17.991Z,12.77
2023-03-08T01:05:46.133Z,13.50
2023-03-08T01:08:13.761Z,14.23
2023-03-08T01:10:40.987Z,14.85
2023-03-08T01:13:08.858Z,13.55
2023-03-08T01:15:37.090Z,13.65
2023-03-08T01:18:04.671Z,14.85
2023-03-08T01:20:32.319Z,12.20
2023-03-08T01:22:59.543Z,14.38
2023-03-08T01:25:26.815Z,12.50
2023-03-08T01:27:54.261Z,15.05
2023-03-08T01:30:22.555Z,13.82
2023-03-08T01:32:50.736Z,12.02
2023-03-08T01:35:18.844Z,11.98
2023-03-08T01:37:46.561Z,11.85
2023-03-08T01:40:16.515Z,11.75
2023-03-08T01:42:43.692Z,14.05
2023-03-08T01:45:29.694Z,14.80
2023-03-08T01:47:57.000Z,14.27
2023-03-08T01:50:24.238Z,14.70
2023-03-08T01:52:54.557Z,12.25
2023-03-08T01:55:21.735Z,13.38
2023-03-08T01:57:54.153Z,13.43
2023-03-08T02:00:25.144Z,13.00
2023-03-08T02:03:02.866Z,11.77
2023-03-08T02:05:30.448Z,15.65
2023-03-08T02:07:57.679Z,12.50
2023-03-08T02:10:24.914Z,12.73
2023-03-08T02:12:52.615Z,15.57
2023-03-08T02:15:20.814Z,14.25
2023-03-08T02:17:48.568Z,12.38
2023-03-08T02:20:18.370Z,13.63
2023-03-08T02:22:46.327Z,15.48
2023-03-08T02:25:17.941Z,12.63
2023-03-08T02:27:45.105Z,14.48
2023-03-08T02:30:13.637Z,13.50
2023-03-08T02:32:41.511Z,14.00
2023-03-08T02:35:08.961Z,16.13
2023-03-08T02:37:36.237Z,13.43
2023-03-08T02:40:03.419Z,12.90
2023-03-08T02:42:30.567Z,14.98
2023-03-08T02:44:57.832Z,15.02
2023-03-08T02:47:25.004Z,14.13
2023-03-08T02:49:52.196Z,14.65
2023-03-08T02:52:19.450Z,17.55
2023-03-08T02:54:46.873Z,16.50
2023-03-08T02:57:14.032Z,13.82
2023-03-08T02:59:41.183Z,16.98
2023-03-08T03:02:08.340Z,14.75
2023-03-08T03:04:35.535Z,11.93
2023-03-08T03:07:02.879Z,15.65
2023-03-08T03:09:30.080Z,13.75
2023-03-08T03:11:57.223Z,14.35
2023-03-08T03:14:24.386Z,16.85
2023-03-08T03:16:51.531Z,15.93
2023-03-08T03:19:18.654Z,15.35
2023-03-08T03:21:45.816Z,16.73
2023-03-08T03:24:13.967Z,17.50
2023-03-08T03:26:41.097Z,15.32
2023-03-08T03:29:08.325Z,16.30
2023-03-08T03:31:35.625Z,16.13
2023-03-08T03:34:02.925Z,14.52
2023-03-08T03:36:30.235Z,15.93
2023-03-08T03:38:57.387Z,14.00
2023-03-08T03:41:24.764Z,16.95
2023-03-08T03:43:52.504Z,17.33
2023-03-08T03:46:23.678Z,15.43
2023-03-08T03:48:51.316Z,17.00
2023-03-08T03:51:20.160Z,16.92
2023-03-08T03:53:47.865Z,14.13
2023-03-08T03:56:16.535Z,13.80
2023-03-08T03:58:43.664Z,16.10
2023-03-08T04:01:11.704Z,15.75
2023-03-08T04:03:39.257Z,15.55
2023-03-08T04:06:16.850Z,14.95
2023-03-08T04:08:44.067Z,14.88
2023-03-08T04:11:12.874Z,16.38
2023-03-08T04:13:40.480Z,13.35
2023-03-08T04:16:15.166Z,17.60
2023-03-08T04:18:42.701Z,15.80
2023-03-08T04:21:10.322Z,17.70
2023-03-08T04:23:37.614Z,15.98
2023-03-08T04:26:05.416Z,16.63
2023-03-08T04:28:33.903Z,16.67
2023-03-08T04:31:01.775Z,18.23
2023-03-08T04:33:28.926Z,16.33
2023-03-08T04:35:56.127Z,16.13
2023-03-08T04:38:23.320Z,12.18
2023-03-08T04:41:11.705Z,13.55
2023-03-08T04:43:40.022Z,17.08
2023-03-08T04:46:07.795Z,18.73
2023-03-08T04:48:35.163Z,16.17
2023-03-08T04:51:04.158Z,16.33
2023-03-08T04:53:32.223Z,15.32
2023-03-08T04:56:00.543Z,13.80
2023-03-08T04:58:28.688Z,17.25
2023-03-08T05:00:55.974Z,18.05
2023-03-08T05:03:23.357Z,17.35
2023-03-08T05:05:52.026Z,17.88
2023-03-08T05:08:19.818Z,16.10
2023-03-08T05:10:51.016Z,17.27
2023-03-08T05:13:18.249Z,16.17
2023-03-08T05:15:45.366Z,24.50
2023-03-08T05:18:12.733Z,16.15
2023-03-08T05:20:39.944Z,16.73
2023-03-08T05:23:07.136Z,19.85
2023-03-08T05:25:34.401Z,18.55
2023-03-08T05:28:01.601Z,18.45
2023-03-08T05:30:28.828Z,18.52
2023-03-08T05:32:56.086Z,20.98
2023-03-08T05:35:23.258Z,19.75
2023-03-08T05:37:50.430Z,22.00
2023-03-08T05:40:17.746Z,23.50
2023-03-08T05:42:44.997Z,17.95
2023-03-08T05:45:12.424Z,20.83
2023-03-08T05:47:39.577Z,18.42
2023-03-08T05:50:06.862Z,20.90
2023-03-08T05:52:34.751Z,20.15
2023-03-08T05:55:02.101Z,23.00
2023-03-08T05:57:29.583Z,19.60
2023-03-08T05:59:56.776Z,20.92
2023-03-08T06:02:23.984Z,24.65
2023-03-08T06:04:51.227Z,19.83
2023-03-08T06:07:18.492Z,18.58
2023-03-08T06:09:45.633Z,19.90
2023-03-08T06:12:12.899Z,20.50
2023-03-08T06:14:40.052Z,20.38
2023-03-08T06:17:07.254Z,23.75
2023-03-08T06:19:34.505Z,21.38
2023-03-08T06:22:01.675Z,18.65
2023-03-08T06:24:28.863Z,23.05
2023-03-08T06:26:56.305Z,21.52
2023-03-08T06:29:23.603Z,27.00
2023-03-08T06:31:50.790Z,19.77
2023-03-08T06:34:18.065Z,21.15
2023-03-08T06:36:45.222Z,18.88
2023-03-08T06:39:12.458Z,21.40
2023-03-08T06:41:39.688Z,21.48
2023-03-08T06:44:06.866Z,21.50
2023-03-08T06:46:34.067Z,22.02
2023-03-08T06:49:01.744Z,20.02
2023-03-08T06:51:28.941Z,20.88
2023-03-08T06:53:56.079Z,21.55
2023-03-08T06:56:23.280Z,23.17
2023-03-08T06:58:50.719Z,25.30
2023-03-08T07:01:17.983Z,21.27
2023-03-08T07:03:46.507Z,20.85
2023-03-08T07:06:13.793Z,21.15
2023-03-08T07:08:40.985Z,25.95
2023-03-08T07:11:11.530Z,19.23
2023-03-08T07:13:39.099Z,24.88
2023-03-08T07:16:10.102Z,25.13
2023-03-08T07:18:37.376Z,22.40
2023-03-08T07:21:04.649Z,24.83
2023-03-08T07:23:31.868Z,21.42
2023-03-08T07:25:59.007Z,22.52
2023-03-08T07:28:26.203Z,25.50
2023-03-08T07:30:53.733Z,21.70
2023-03-08T07:33:23.093Z,20.35
2023-03-08T07:35:50.429Z,22.30
2023-03-08T07:38:18.215Z,20.23
2023-03-08T07:40:45.579Z,20.85
2023-03-08T07:43:12.887Z,20.45
2023-03-08T07:45:40.357Z,27.38
2023-03-08T07:48:07.550Z,19.20
2023-03-08T07:50:34.933Z,29.67
2023-03-08T07:53:02.181Z,19.15
2023-03-08T07:55:29.733Z,17.95
2023-03-08T07:57:56.983Z,26.02
2023-03-08T08:00:24.175Z,18.90
2023-03-08T08:02:54.042Z,15.43
2023-03-08T08:05:26.646Z,22.20
2023-03-08T08:07:54.223Z,19.30
2023-03-08T08:10:21.428Z,21.33
2023-03-08T08:12:48.618Z,21.30
2023-03-08T08:15:17.525Z,21.05
2023-03-08T08:17:44.719Z,25.08
2023-03-08T08:20:12.155Z,17.88
2023-03-08T08:22:39.289Z,19.80
2023-03-08T08:25:07.397Z,21.52
2023-03-08T08:27:34.919Z,20.35
2023-03-08T08:30:02.266Z,17.58
2023-03-08T08:32:29.523Z,18.80
2023-03-08T08:34:58.249Z,17.23
2023-03-08T08:37:26.446Z,20.10
2023-03-08T08:39:54.317Z,16.70
2023-03-08T08:42:21.469Z,25.77
2023-03-08T08:44:48.657Z,15.00
2023-03-08T08:47:15.885Z,19.02
2023-03-08T08:49:43.176Z,19.85
2023-03-08T08:52:10.357Z,21.35
2023-03-08T08:54:40.010Z,17.13
2023-03-08T08:57:07.727Z,19.60
2023-03-08T08:59:35.091Z,14.40
2023-03-08T09:02:02.348Z,15.52
2023-03-08T09:04:29.635Z,17.45
2023-03-08T09:06:57.075Z,16.02
2023-03-08T09:09:24.358Z,14.90
2023-03-08T09:11:55.375Z,18.63
2023-03-08T09:14:23.076Z,15.48
2023-03-08T09:16:50.353Z,19.35
2023-03-08T09:19:17.599Z,21.05
2023-03-08T09:21:44.864Z,18.55
2023-03-08T09:24:13.264Z,19.17
2023-03-08T09:26:40.508Z,19.95
2023-03-08T09:29:08.050Z,20.65
2023-03-08T09:31:37.201Z,22.30
2023-03-08T09:34:08.610Z,18.33
2023-03-08T09:36:36.527Z,17.75
2023-03-08T09:39:04.144Z,24.27
2023-03-08T09:41:46.637Z,20.88
2023-03-08T09:44:13.828Z,20.95
2023-03-08T09:46:50.121Z,16.92
2023-03-08T09:49:20.954Z,19.63
2023-03-08T09:51:50.473Z,21.63
2023-03-08T09:54:22.419Z,20.50
2023-03-08T09:56:50.859Z,20.92
2023-03-08T09:59:20.893Z,21.13
2023-03-08T10:01:52.990Z,22.50
2023-03-08T10:04:34.742Z,20.80
2023-03-08T10:07:01.970Z,21.15
2023-03-08T10:09:44.828Z,20.08
2023-03-08T10:12:30.687Z,17.52
2023-03-08T10:15:04.346Z,23.02
2023-03-08T10:17:38.813Z,20.23
2023-03-08T10:20:09.242Z,18.90
2023-03-08T10:22:39.201Z,31.52
2023-03-08T10:25:36.008Z,23.08
2023-03-08T10:28:04.163Z,25.63
2023-03-08T10:30:39.138Z,15.70
2023-03-08T10:35:33.880Z,20.00
2023-03-08T10:38:01.170Z,18.35
2023-03-08T10:40:28.413Z,23.33
2023-03-08T10:43:03.569Z,19.48
2023-03-08T10:45:30.857Z,19.75
2023-03-08T10:47:59.937Z,20.63
2023-03-08T10:50:31.538Z,20.67
2023-03-08T10:53:09.344Z,19.48
2023-03-08T10:55:52.547Z,17.92
2023-03-08T10:58:37.224Z,23.48
2023-03-08T11:01:09.086Z,21.58
2023-03-08T11:03:36.272Z,20.30
2023-03-08T11:06:05.675Z,16.35
2023-03-08T11:08:35.000Z,17.30
2023-03-08T11:11:03.214Z,20.77
2023-03-08T11:13:31.961Z,18.30
2023-03-08T11:16:09.427Z,21.02
2023-03-08T11:18:42.429Z,18.48
2023-03-08T11:21:27.708Z,16.13
2023-03-08T11:24:05.211Z,17.05
2023-03-08T11:26:40.663Z,12.23
2023-03-08T11:29:17.220Z,15.02
2023-03-08T11:32:07.145Z,18.20
2023-03-08T11:34:40.728Z,12.98
2023-03-08T11:37:26.666Z,16.15
2023-03-08T11:39:55.480Z,12.35
2023-03-08T11:42:25.661Z,14.32
2023-03-08T11:44:52.794Z,16.13
2023-03-08T11:47:26.006Z,11.23
2023-03-08T11:49:59.341Z,11.85
2023-03-08T11:52:32.357Z,11.45
2023-03-08T11:55:11.752Z,12.55
2023-03-08T11:57:42.278Z,12.63
2023-03-08T12:00:38.834Z,14.00
2023-03-08T12:03:15.413Z,15.15
2023-03-08T12:06:22.667Z,13.52
2023-03-08T12:08:55.312Z,11.68
2023-03-08T12:11:29.433Z,13.27
2023-03-08T12:14:04.833Z,10.37
2023-03-08T12:16:38.558Z,9.27
2023-03-08T12:19:18.161Z,10.57
2023-03-08T12:22:24.153Z,10.32
2023-03-08T12:25:10.243Z,9.32
2023-03-08T12:27:46.243Z,10.93
2023-03-08T12:30:31.808Z,8.82
2023-03-08T12:33:00.388Z,9.38
2023-03-08T12:35:35.201Z,11.52
2023-03-08T12:38:25.621Z,7.90
2023-03-08T12:40:54.500Z,9.50
2023-03-08T12:43:21.651Z,11.02
2023-03-08T12:46:01.239Z,8.10
2023-03-08T12:48:31.944Z,9.05
2023-03-08T12:51:02.162Z,10.82
2023-03-08T12:53:40.100Z,7.85
2023-03-08T12:56:10.243Z,8.75
2023-03-08T12:58:57.729Z,9.00
2023-03-08T13:01:41.740Z,10.02
2023-03-08T13:04:47.508Z,12.73
2023-03-08T13:07:43.899Z,8.77
2023-03-08T13:10:21.719Z,9.32
2023-03-08T13:13:02.892Z,7.38
2023-03-08T13:15:30.092Z,8.82
2023-03-08T13:18:08.497Z,6.07
2023-03-08T13:20:42.328Z,4.65
2023-03-08T13:23:10.378Z,4.38
2023-03-08T13:25:52.683Z,8.38
2023-03-08T13:28:21.250Z,5.57
2023-03-08T13:30:52.002Z,5.80
2023-03-08T13:33:24.250Z,2.00
2023-03-08T13:36:05.482Z,3.28
2023-03-08T13:38:34.022Z,5.28
2023-03-08T13:41:01.247Z,1.85
2023-03-08T13:43:29.881Z,1.30
2023-03-08T13:45:58.394Z,0.98
2023-03-08T13:48:27.043Z,2.83
2023-03-08T13:50:54.240Z,1.75
2023-03-08T13:53:23.540Z,2.97
2023-03-08T13:55:53.194Z,4.78
2023-03-08T13:58:20.388Z,3.13
2023-03-08T14:00:58.562Z,3.17
2023-03-08T14:03:28.783Z,3.30
2023-03-08T14:05:56.106Z,4.00
2023-03-08T14:08:25.130Z,1.98
2023-03-08T14:10:54.285Z,1.10
2023-03-08T14:13:27.565Z,2.88
2023-03-08T14:15:57.032Z,2.22
2023-03-08T14:18:44.541Z,5.50
2023-03-08T14:21:16.813Z,1.73
2023-03-08T14:23:47.635Z,0.90
2023-03-08T14:26:34.748Z,2.05
2023-03-08T14:29:21.817Z,1.75
2023-03-08T14:31:55.170Z,1.75
2023-03-08T14:34:23.931Z,3.08
2023-03-08T14:36:56.112Z,3.10
2023-03-08T14:39:24.763Z,2.22
2023-03-08T14:41:52.167Z,2.08
2023-03-08T14:44:30.215Z,1.15
2023-03-08T14:47:00.366Z,1.00
2023-03-08T14:49:29.793Z,3.08
2023-03-08T14:51:58.335Z,3.63
2023-03-08T14:54:33.563Z,2.60
2023-03-08T14:57:17.840Z,3.15
2023-03-08T14:59:45.178Z,1.73
2023-03-08T15:02:13.308Z,2.17
2023-03-08T15:04:40.959Z,5.97
2023-03-08T15:07:08.568Z,2.85
2023-03-08T15:09:35.839Z,4.55
2023-03-08T15:12:03.039Z,4.47
2023-03-08T15:14:30.576Z,3.85
2023-03-08T15:16:58.269Z,3.33
2023-03-08T15:19:25.763Z,1.00
2023-03-08T15:21:53.104Z,4.22
2023-03-08T15:24:20.584Z,2.85
2023-03-08T15:26:47.737Z,0.90
2023-03-08T15:29:25.268Z,2.50
2023-03-08T15:31:56.190Z,3.67
2023-03-08T15:34:24.732Z,1.05
2023-03-08T15:36:53.915Z,2.63
2023-03-08T15:39:21.215Z,1.92
2023-03-08T15:41:48.647Z,1.88
2023-03-08T15:44:16.032Z,1.58
2023-03-08T15:46:43.253Z,1.00
2023-03-08T15:49:10.474Z,1.45
2023-03-08T15:51:38.059Z,1.95
2023-03-08T15:54:06.016Z,6.55
2023-03-08T15:56:33.288Z,2.95
2023-03-08T15:59:00.702Z,1.65
2023-03-08T16:01:27.967Z,1.90
2023-03-08T16:03:56.201Z,3.00
2023-03-08T16:06:23.767Z,1.70
2023-03-08T16:08:51.094Z,1.20
2023-03-08T16:11:22.123Z,1.70
2023-03-08T16:13:53.039Z,1.17
2023-03-08T16:16:21.137Z,0.93
2023-03-08T16:18:48.730Z,2.10
2023-03-08T16:21:16.055Z,3.25
2023-03-08T16:23:43.275Z,2.40
2023-03-08T16:26:16.137Z,5.25
2023-03-08T16:28:45.058Z,1.77
2023-03-08T16:31:12.515Z,1.10
2023-03-08T16:33:39.836Z,1.13
2023-03-08T16:36:07.398Z,2.45
2023-03-08T16:38:34.637Z,1.33
2023-03-08T16:41:12.336Z,4.88
2023-03-08T16:43:46.824Z,5.15
2023-03-08T16:46:16.499Z,1.30
2023-03-08T16:48:43.694Z,6.70
2023-03-08T16:51:14.300Z,2.63
2023-03-08T16:53:41.434Z,5.32
2023-03-08T16:56:09.316Z,1.52
2023-03-08T16:58:36.416Z,3.70
2023-03-08T17:01:10.772Z,1.73
2023-03-08T17:03:38.615Z,3.47
2023-03-08T17:06:09.544Z,4.22
2023-03-08T17:08:37.667Z,3.05
2023-03-08T17:11:06.214Z,2.47
2023-03-08T17:13:33.757Z,2.08
2023-03-08T17:16:00.969Z,2.63
2023-03-08T17:18:28.176Z,3.10
2023-03-08T17:20:55.415Z,3.53
2023-03-08T17:23:22.650Z,2.22
2023-03-08T17:25:49.834Z,1.80
2023-03-08T17:28:16.988Z,2.05
2023-03-08T17:30:44.258Z,1.48
2023-03-08T17:33:12.721Z,2.67
2023-03-08T17:35:41.941Z,2.97
2023-03-08T17:38:10.334Z,2.50
2023-03-08T17:40:40.356Z,3.60
2023-03-08T17:43:07.536Z,3.58
2023-03-08T17:45:34.679Z,3.85
2023-03-08T17:48:02.882Z,1.52
2023-03-08T17:50:31.206Z,2.95
2023-03-08T17:52:58.604Z,1.85
2023-03-08T17:55:26.357Z,4.15
2023-03-08T17:57:54.035Z,2.53
2023-03-08T18:00:21.280Z,2.45
2023-03-08T18:02:48.582Z,2.65
2023-03-08T18:05:16.040Z,2.83
2023-03-08T18:07:43.556Z,4.63
2023-03-08T18:10:11.316Z,2.22
2023-03-08T18:12:38.431Z,2.92
2023-03-08T18:15:05.815Z,2.42
2023-03-08T18:17:34.473Z,2.03
2023-03-08T18:20:02.221Z,2.53
2023-03-08T18:22:29.399Z,1.65
2023-03-08T18:24:56.540Z,1.45
2023-03-08T18:27:23.740Z,3.17
2023-03-08T18:29:50.924Z,4.88
2023-03-08T18:32:18.108Z,3.53
2023-03-08T18:34:46.672Z,1.90
2023-03-08T18:37:13.833Z,1.95
2023-03-08T18:39:41.033Z,1.80
2023-03-08T18:42:08.395Z,2.97
2023-03-08T18:44:38.546Z,1.30
2023-03-08T18:47:05.760Z,2.90
2023-03-08T18:49:32.904Z,2.72
2023-03-08T18:52:00.143Z,3.55
2023-03-08T18:54:27.321Z,4.53
2023-03-08T18:56:55.730Z,6.88
2023-03-08T18:59:23.521Z,1.30
2023-03-08T19:01:50.697Z,2.05
2023-03-08T19:04:18.347Z,0.60
2023-03-08T19:06:45.511Z,0.68
2023-03-08T19:09:17.435Z,0.73
2023-03-08T19:11:45.058Z,2.03
2023-03-08T19:14:13.071Z,2.25
2023-03-08T19:16:40.376Z,0.40
2023-03-08T19:19:09.251Z,0.55
2023-03-08T19:21:38.041Z,0.60
2023-03-08T19:24:05.935Z,2.35
2023-03-08T19:26:36.899Z,0.95
2023-03-08T19:29:04.097Z,1.30
2023-03-08T19:31:31.381Z,1.10
2023-03-08T19:33:58.784Z,2.25
2023-03-08T19:36:25.953Z,0.50
2023-03-08T19:38:53.110Z,0.65
2023-03-08T19:41:20.236Z,1.73
2023-03-08T19:43:48.049Z,1.45
2023-03-08T19:46:17.839Z,0.40
2023-03-08T19:48:47.801Z,0.93
2023-03-08T19:51:15.922Z,0.70
2023-03-08T19:53:43.618Z,0.57
2023-03-08T19:56:15.207Z,2.28
2023-03-08T19:58:42.434Z,1.35
2023-03-08T20:01:10.136Z,1.20
2023-03-08T20:03:37.473Z,1.80
2023-03-08T20:06:05.015Z,2.17
2023-03-08T20:08:32.404Z,0.50
2023-03-08T20:10:59.531Z,0.60
2023-03-08T20:13:26.677Z,1.90
2023-03-08T20:15:53.854Z,4.18
2023-03-08T20:18:21.046Z,0.95
2023-03-08T20:20:48.427Z,0.88
2023-03-08T20:23:15.723Z,1.33
2023-03-08T20:25:45.787Z,0.50
2023-03-08T20:28:13.083Z,1.45
2023-03-08T20:30:40.299Z,1.30
2023-03-08T20:33:07.569Z,0.80
2023-03-08T20:35:34.752Z,1.42
2023-03-08T20:38:02.031Z,0.57
2023-03-08T20:40:29.206Z,1.23
2023-03-08T20:42:57.823Z,2.17
2023-03-08T20:45:25.697Z,1.75
2023-03-08T20:47:57.483Z,1.02
2023-03-08T20:50:25.906Z,0.88
2023-03-08T20:52:53.781Z,1.25
2023-03-08T20:55:20.932Z,1.83
2023-03-08T20:57:48.112Z,0.65
2023-03-08T21:00:15.523Z,1.08
2023-03-08T21:02:42.887Z,0.47
2023-03-08T21:05:11.107Z,1.80
2023-03-08T21:07:38.297Z,2.03
2023-03-08T21:10:06.479Z,0.77
2023-03-08T21:12:33.637Z,1.35
2023-03-08T21:15:00.855Z,1.52
2023-03-08T21:17:29.898Z,1.20
2023-03-08T21:19:57.287Z,1.25
2023-03-08T21:22:24.460Z,1.55
2023-03-08T21:24:51.706Z,2.47
2023-03-08T21:27:19.130Z,0.80
2023-03-08T21:29:46.393Z,0.82
2023-03-08T21:32:13.708Z,1.98
2023-03-08T21:34:40.921Z,2.05
2023-03-08T21:37:08.073Z,1.15
2023-03-08T21:39:35.246Z,1.77
2023-03-08T21:42:02.494Z,1.80
2023-03-08T21:44:31.915Z,1.70
2023-03-08T21:46:59.286Z,1.50
2023-03-08T21:49:27.997Z,2.95
2023-03-08T21:51:55.840Z,1.55
2023-03-08T21:54:23.780Z,0.95
2023-03-08T21:56:50.956Z,2.22
2023-03-08T21:59:18.216Z,1.95
2023-03-08T22:01:48.238Z,1.00
2023-03-08T22:04:16.436Z,1.50
2023-03-08T22:06:43.725Z,1.80
2023-03-08T22:09:11.025Z,2.58
2023-03-08T22:11:38.231Z,1.20
2023-03-08T22:14:05.371Z,3.75
2023-03-08T22:16:33.023Z,1.00
2023-03-08T22:19:02.388Z,3.20
2023-03-08T22:21:30.037Z,1.75
2023-03-08T22:23:58.177Z,2.20
2023-03-08T22:26:26.049Z,1.25
2023-03-08T22:28:53.892Z,1.90
2023-03-08T22:31:22.279Z,1.75
2023-03-08T22:33:49.474Z,1.50
2023-03-08T22:36:17.479Z,3.10
2023-03-08T22:38:44.607Z,1.95
2023-03-08T22:41:16.452Z,3.35
2023-03-08T22:43:44.256Z,1.63
2023-03-08T22:46:13.177Z,1.83
2023-03-08T22:48:40.464Z,2.42
2023-03-08T22:51:11.306Z,1.42
2023-03-08T22:53:39.111Z,2.63
2023-03-08T22:56:06.516Z,2.53
2023-03-08T22:58:33.735Z,4.20
2023-03-08T23:01:00.878Z,1.80
2023-03-08T23:03:28.088Z,2.55
2023-03-08T23:05:56.442Z,2.03
2023-03-08T23:08:24.379Z,1.77
2023-03-08T23:10:51.773Z,1.92
2023-03-08T23:13:32.658Z,1.85
2023-03-08T23:16:00.912Z,1.50
2023-03-08T23:18:28.778Z,1.23
2023-03-08T23:20:56.057Z,1.20
2023-03-08T23:23:25.294Z,1.48
2023-03-08T23:25:52.834Z,2.28
2023-03-08T23:28:20.293Z,4.10
2023-03-08T23:30:47.611Z,1.98
2023-03-08T23:33:14.832Z,1.90
2023-03-08T23:35:42.031Z,3.42
2023-03-08T23:38:10.198Z,3.50
2023-03-08T23:40:39.853Z,1.98
2023-03-08T23:43:07.455Z,2.05
2023-03-08T23:45:34.799Z,1.45
2023-03-08T23:48:03.345Z,2.75
2023-03-08T23:50:30.810Z,2.42
2023-03-08T23:52:58.042Z,2.50
2023-03-08T23:55:25.165Z,6.13
2023-03-08T23:57:52.324Z,1.45
